createdAt,value
2018-03-21T00:00:06.943Z,-1.10
2018-03-21T00:02:36.335Z,-1.20
2018-03-21T00:05:06.636Z,-1.10
2018-03-21T00:07:37.043Z,-1.00
2018-03-21T00:10:07.922Z,-1.10
2018-03-21T00:12:44.526Z,-1.10
2018-03-21T00:15:14.388Z,-1.20
2018-03-21T00:17:46.059Z,-1.20
2018-03-21T00:20:15.383Z,-1.20
2018-03-21T00:22:44.460Z,-1.20
2018-03-21T00:25:15.619Z,-1.10
2018-03-21T00:28:05.640Z,-1.20
2018-03-21T00:30:38.160Z,-1.20
2018-03-21T00:33:09.431Z,-1.10
2018-03-21T00:35:38.515Z,-1.00
2018-03-21T00:38:15.155Z,-1.00
2018-03-21T00:40:44.969Z,-1.20
2018-03-21T00:43:14.292Z,-1.20
2018-03-21T00:46:10.787Z,-1.30
2018-03-21T00:48:45.368Z,-1.40
2018-03-21T00:51:16.156Z,-1.50
2018-03-21T00:53:43.471Z,-1.30
2018-03-21T00:56:11.383Z,-1.20
2018-03-21T00:58:54.560Z,-1.10
2018-03-21T01:01:22.692Z,-1.10
2018-03-21T01:03:54.964Z,-1.00
2018-03-21T01:06:29.619Z,-0.90
2018-03-21T01:08:59.223Z,-0.90
2018-03-21T01:11:28.419Z,-0.80
2018-03-21T01:13:55.756Z,-0.80
2018-03-21T01:16:23.083Z,-0.70
2018-03-21T01:18:51.447Z,-0.80
2018-03-21T01:21:19.064Z,-0.70
2018-03-21T01:24:03.927Z,-0.80
2018-03-21T01:26:45.301Z,-0.80
2018-03-21T01:29:20.020Z,-0.90
2018-03-21T01:31:51.631Z,-0.90
2018-03-21T01:34:21.122Z,-1.00
2018-03-21T01:36:52.003Z,-1.00
2018-03-21T01:39:22.907Z,-0.90
2018-03-21T01:41:55.678Z,-0.90
2018-03-21T01:44:25.947Z,-0.90
2018-03-21T01:46:54.335Z,-1.00
2018-03-21T01:49:26.448Z,-1.00
2018-03-21T01:51:54.427Z,-1.00
2018-03-21T01:54:25.917Z,-1.10
2018-03-21T01:56:53.156Z,-1.20
2018-03-21T01:59:21.531Z,-1.20
2018-03-21T02:01:55.267Z,-1.20
2018-03-21T02:04:25.860Z,-1.30
2018-03-21T02:06:58.284Z,-1.30
2018-03-21T02:09:38.927Z,-1.40
2018-03-21T02:12:13.354Z,-1.40
2018-03-21T02:14:45.688Z,-1.40
2018-03-21T02:17:14.296Z,-1.40
2018-03-21T02:19:45.945Z,-1.50
2018-03-21T02:22:13.296Z,-1.40
2018-03-21T02:24:44.024Z,-1.40
2018-03-21T02:27:11.384Z,-1.30
2018-03-21T02:29:46.071Z,-1.30
2018-03-21T02:32:21.280Z,-1.40
2018-03-21T02:34:51.607Z,-1.40
2018-03-21T02:37:26.764Z,-1.50
2018-03-21T02:40:13.918Z,-1.40
2018-03-21T02:42:41.265Z,-1.40
2018-03-21T02:45:21.254Z,-1.40
2018-03-21T02:47:54.852Z,-1.40
2018-03-21T02:50:41.968Z,-1.40
2018-03-21T02:53:31.728Z,-1.40
2018-03-21T02:56:11.470Z,-1.50
2018-03-21T02:58:44.778Z,-1.70
2018-03-21T03:01:20.480Z,-1.50
2018-03-21T03:03:55.845Z,-1.60
2018-03-21T03:06:41.587Z,-1.60
2018-03-21T03:09:11.268Z,-1.70
2018-03-21T03:11:46.567Z,-1.50
2018-03-21T03:14:14.071Z,-1.50
2018-03-21T03:16:41.451Z,-1.50
2018-03-21T03:19:08.892Z,-1.50
2018-03-21T03:21:37.015Z,-1.60
2018-03-21T03:24:12.099Z,-1.70
2018-03-21T03:26:46.326Z,-1.70
2018-03-21T03:29:22.336Z,-1.70
2018-03-21T03:31:53.719Z,-1.70
2018-03-21T03:34:36.903Z,-1.80
2018-03-21T03:37:10.268Z,-1.80
2018-03-21T03:39:45.812Z,-1.80
2018-03-21T03:42:27.444Z,-1.80
2018-03-21T03:45:05.006Z,-1.80
2018-03-21T03:47:38.544Z,-1.80
2018-03-21T03:50:11.139Z,-1.80
2018-03-21T03:52:44.681Z,-1.80
2018-03-21T03:55:15.460Z,-1.70
2018-03-21T03:57:42.861Z,-1.60
2018-03-21T04:00:25.279Z,-1.50
2018-03-21T04:03:01.359Z,-1.50
2018-03-21T04:05:38.907Z,-1.50
2018-03-21T04:08:14.347Z,-1.40
2018-03-21T04:10:55.948Z,-1.50
2018-03-21T04:13:26.084Z,-1.50
2018-03-21T04:16:03.439Z,-1.50
2018-03-21T04:18:39.739Z,-1.50
2018-03-21T04:21:21.183Z,-1.70
2018-03-21T04:23:58.635Z,-1.80
2018-03-21T04:26:46.207Z,-1.90
2018-03-21T04:29:16.622Z,-1.90
2018-03-21T04:31:46.981Z,-1.90
2018-03-21T04:34:17.402Z,-1.70
2018-03-21T04:37:10.180Z,-1.70
2018-03-21T04:39:43.576Z,-1.60
2018-03-21T04:42:16.103Z,-1.60
2018-03-21T04:44:51.459Z,-1.60
2018-03-21T04:47:25.610Z,-1.70
2018-03-21T04:49:59.197Z,-1.70
2018-03-21T04:52:32.812Z,-1.70
2018-03-21T04:55:00.355Z,-1.80
2018-03-21T04:57:35.778Z,-1.80
2018-03-21T05:00:04.235Z,-1.90
2018-03-21T05:02:32.535Z,-2.00
2018-03-21T05:05:05.962Z,-2.00
2018-03-21T05:07:36.460Z,-1.90
2018-03-21T05:10:04.603Z,-2.00
2018-03-21T05:12:33.133Z,-2.00
2018-03-21T05:15:00.236Z,-2.00
2018-03-21T05:17:31.512Z,-2.10
2018-03-21T05:20:03.643Z,-2.10
2018-03-21T05:22:35.251Z,-2.00
2018-03-21T05:25:02.791Z,-2.00
2018-03-21T05:27:30.082Z,-2.10
2018-03-21T05:30:02.972Z,-2.10
2018-03-21T05:32:37.539Z,-2.20
2018-03-21T05:35:08.614Z,-2.20
2018-03-21T05:37:38.231Z,-2.20
2018-03-21T05:40:11.465Z,-2.30
2018-03-21T05:42:45.767Z,-2.30
2018-03-21T05:45:19.222Z,-2.30
2018-03-21T05:47:50.614Z,-2.20
2018-03-21T05:50:27.648Z,-2.20
2018-03-21T05:52:57.632Z,-2.10
2018-03-21T05:55:24.288Z,-2.10
2018-03-21T05:57:58.115Z,-2.00
2018-03-21T06:00:27.131Z,-1.90
2018-03-21T06:03:03.971Z,-1.90
2018-03-21T06:05:35.535Z,-1.90
2018-03-21T06:08:09.424Z,-1.80
2018-03-21T06:10:36.044Z,-1.70
2018-03-21T06:13:03.416Z,-1.60
2018-03-21T06:15:37.931Z,-1.50
2018-03-21T06:18:08.377Z,-1.40
2018-03-21T06:20:52.375Z,-1.30
2018-03-21T06:23:22.783Z,-1.20
2018-03-21T06:25:57.132Z,-1.10
2018-03-21T06:28:34.778Z,-1.10
2018-03-21T06:31:07.818Z,-1.00
2018-03-21T06:33:35.108Z,-0.90
2018-03-21T06:36:10.776Z,-0.90
2018-03-21T06:38:38.203Z,-0.80
2018-03-21T06:41:05.762Z,-0.80
2018-03-21T06:43:40.376Z,-0.80
2018-03-21T06:46:07.834Z,-0.70
2018-03-21T06:48:34.389Z,-0.80
2018-03-21T06:51:08.808Z,-0.70
2018-03-21T06:53:39.528Z,-0.70
2018-03-21T06:56:09.607Z,-0.60
2018-03-21T06:58:40.672Z,-0.50
2018-03-21T07:01:12.304Z,-0.60
2018-03-21T07:03:39.571Z,-0.30
2018-03-21T07:06:06.815Z,-0.30
2018-03-21T07:08:37.151Z,-0.30
2018-03-21T07:11:09.730Z,-0.20
2018-03-21T07:13:52.591Z,0.00
2018-03-21T07:16:40.144Z,-0.10
2018-03-21T07:19:07.427Z,0.00
2018-03-21T07:22:09.591Z,0.10
2018-03-21T07:24:37.783Z,0.20
2018-03-21T07:27:05.654Z,0.30
2018-03-21T07:29:38.972Z,0.20
2018-03-21T07:32:11.967Z,0.20
2018-03-21T07:34:42.592Z,0.20
2018-03-21T07:37:15.919Z,0.40
2018-03-21T07:39:46.539Z,0.40
2018-03-21T07:42:19.091Z,0.50
2018-03-21T07:44:50.711Z,0.50
2018-03-21T07:47:23.173Z,0.60
2018-03-21T07:49:51.871Z,0.70
2018-03-21T07:52:18.488Z,0.80
2018-03-21T07:54:51.615Z,1.00
2018-03-21T07:57:18.992Z,1.00
2018-03-21T07:59:45.511Z,1.00
2018-03-21T08:02:12.092Z,1.10
2018-03-21T08:04:38.579Z,1.10
2018-03-21T08:07:08.968Z,1.20
2018-03-21T08:09:39.186Z,1.20
2018-03-21T08:12:11.591Z,1.40
2018-03-21T08:14:39.216Z,1.60
2018-03-21T08:17:17.448Z,1.70
2018-03-21T08:19:50.223Z,1.70
2018-03-21T08:22:26.482Z,1.70
2018-03-21T08:24:56.909Z,1.80
2018-03-21T08:27:29.464Z,1.70
2018-03-21T08:29:57.803Z,1.90
2018-03-21T08:32:31.617Z,2.00
2018-03-21T08:35:01.426Z,2.00
2018-03-21T08:37:31.735Z,2.20
2018-03-21T08:40:05.149Z,2.20
2018-03-21T08:42:37.621Z,2.30
2018-03-21T08:45:09.212Z,2.50
2018-03-21T08:47:41.512Z,2.50
2018-03-21T08:50:11.879Z,2.60
2018-03-21T08:52:39.270Z,2.70
2018-03-21T08:55:21.779Z,2.70
2018-03-21T08:57:48.871Z,2.70
2018-03-21T09:00:22.523Z,2.90
2018-03-21T09:02:55.051Z,2.90
2018-03-21T09:05:23.467Z,3.30
2018-03-21T09:08:11.941Z,3.20
2018-03-21T09:10:41.438Z,3.20
2018-03-21T09:13:08.996Z,3.20
2018-03-21T09:15:36.596Z,3.10
2018-03-21T09:18:12.170Z,3.30
2018-03-21T09:20:38.936Z,3.20
2018-03-21T09:23:11.055Z,3.40
2018-03-21T09:25:39.635Z,3.60
2018-03-21T09:28:07.028Z,3.60
2018-03-21T09:30:39.351Z,3.90
2018-03-21T09:33:10.779Z,4.00
2018-03-21T09:35:39.841Z,4.10
2018-03-21T09:38:08.987Z,4.10
2018-03-21T09:40:39.360Z,3.90
2018-03-21T09:43:12.052Z,3.90
2018-03-21T09:45:40.815Z,4.10
2018-03-21T09:48:09.020Z,4.10
2018-03-21T09:50:40.196Z,4.20
2018-03-21T09:53:07.461Z,4.20
2018-03-21T09:55:36.830Z,4.10
2018-03-21T09:58:04.254Z,4.00
2018-03-21T10:00:36.396Z,4.00
2018-03-21T10:03:10.183Z,3.60
2018-03-21T10:05:37.504Z,3.80
2018-03-21T10:08:05.751Z,4.20
2018-03-21T10:10:33.746Z,4.40
2018-03-21T10:13:01.414Z,4.30
2018-03-21T10:15:41.954Z,4.60
2018-03-21T10:18:09.251Z,5.00
2018-03-21T10:20:36.450Z,4.70
2018-03-21T10:23:10.267Z,4.60
2018-03-21T10:25:40.680Z,4.80
2018-03-21T10:28:09.231Z,4.80
2018-03-21T10:30:36.048Z,4.90
2018-03-21T10:33:04.414Z,5.40
2018-03-21T10:35:34.743Z,5.20
2018-03-21T10:38:02.187Z,5.00
2018-03-21T10:40:36.311Z,5.10
2018-03-21T10:43:04.912Z,5.10
2018-03-21T10:45:37.236Z,5.10
2018-03-21T10:48:10.468Z,5.10
2018-03-21T10:50:42.240Z,5.00
2018-03-21T10:53:08.722Z,5.00
2018-03-21T10:55:41.193Z,5.10
2018-03-21T10:58:13.883Z,5.10
2018-03-21T11:00:43.476Z,5.40
2018-03-21T11:03:14.033Z,5.40
2018-03-21T11:05:41.304Z,5.40
2018-03-21T11:08:12.649Z,5.30
2018-03-21T11:10:44.046Z,5.20
2018-03-21T11:13:13.863Z,5.20
2018-03-21T11:15:56.687Z,5.30
2018-03-21T11:18:27.416Z,5.30
2018-03-21T11:21:10.720Z,6.10
2018-03-21T11:23:39.767Z,6.20
2018-03-21T11:26:06.935Z,6.20
2018-03-21T11:28:35.986Z,6.20
2018-03-21T11:31:03.338Z,5.90
2018-03-21T11:33:32.674Z,5.50
2018-03-21T11:36:02.747Z,5.00
2018-03-21T11:38:31.252Z,5.00
2018-03-21T11:41:03.819Z,5.20
2018-03-21T11:43:31.864Z,5.80
2018-03-21T11:45:59.028Z,5.80
2018-03-21T11:48:26.717Z,5.70
2018-03-21T11:50:59.261Z,5.50
2018-03-21T11:53:33.779Z,5.50
2018-03-21T11:56:12.186Z,6.20
2018-03-21T11:58:42.527Z,6.20
2018-03-21T12:01:13.063Z,6.20
2018-03-21T12:03:40.425Z,6.60
2018-03-21T12:06:11.093Z,6.50
2018-03-21T12:08:46.389Z,6.30
2018-03-21T12:11:13.779Z,6.50
2018-03-21T12:13:41.376Z,6.90
2018-03-21T12:16:14.008Z,6.90
2018-03-21T12:18:41.848Z,6.60
2018-03-21T12:21:09.808Z,7.00
2018-03-21T12:23:38.841Z,7.00
2018-03-21T12:26:06.359Z,6.90
2018-03-21T12:28:38.884Z,7.00
2018-03-21T12:31:07.379Z,6.70
2018-03-21T12:33:42.004Z,6.90
2018-03-21T12:36:11.606Z,6.90
2018-03-21T12:38:43.807Z,6.70
2018-03-21T12:41:15.070Z,6.20
2018-03-21T12:43:47.707Z,6.20
2018-03-21T12:46:16.320Z,6.00
2018-03-21T12:48:51.021Z,6.00
2018-03-21T12:51:19.660Z,6.50
2018-03-21T12:53:48.151Z,6.90
2018-03-21T12:56:20.469Z,7.60
2018-03-21T12:59:06.204Z,8.10
2018-03-21T13:01:38.119Z,8.00
2018-03-21T13:04:05.688Z,8.10
2018-03-21T13:06:36.011Z,8.20
2018-03-21T13:09:06.730Z,8.20
2018-03-21T13:11:35.889Z,7.50
2018-03-21T13:14:06.377Z,7.50
2018-03-21T13:16:33.755Z,7.10
2018-03-21T13:19:02.059Z,7.10
2018-03-21T13:21:33.813Z,7.30
2018-03-21T13:24:08.561Z,7.00
2018-03-21T13:26:35.208Z,7.00
2018-03-21T13:29:03.616Z,7.40
2018-03-21T13:31:36.820Z,7.50
2018-03-21T13:34:13.842Z,7.50
2018-03-21T13:36:41.042Z,7.50
2018-03-21T13:39:08.732Z,7.50
2018-03-21T13:41:37.380Z,7.20
2018-03-21T13:44:08.169Z,7.30
2018-03-21T13:46:34.848Z,7.30
2018-03-21T13:49:10.347Z,7.30
2018-03-21T13:51:37.726Z,7.00
2018-03-21T13:54:10.636Z,7.00
2018-03-21T13:56:37.986Z,6.90
2018-03-21T13:59:13.370Z,6.80
2018-03-21T14:01:46.699Z,6.80
2018-03-21T14:04:17.481Z,6.90
2018-03-21T14:06:44.878Z,6.90
2018-03-21T14:09:14.289Z,6.90
2018-03-21T14:11:45.184Z,6.90
2018-03-21T14:14:21.664Z,7.10
2018-03-21T14:16:49.360Z,7.30
2018-03-21T14:19:21.351Z,6.90
2018-03-21T14:21:48.642Z,7.10
2018-03-21T14:24:19.151Z,7.10
2018-03-21T14:26:47.095Z,6.90
2018-03-21T14:29:19.495Z,6.70
2018-03-21T14:31:46.856Z,6.40
2018-03-21T14:34:17.095Z,6.40
2018-03-21T14:36:45.343Z,6.40
2018-03-21T14:39:30.064Z,6.40
2018-03-21T14:42:02.063Z,6.40
2018-03-21T14:44:31.479Z,6.60
2018-03-21T14:46:58.782Z,6.80
2018-03-21T14:49:28.352Z,7.00
2018-03-21T14:51:55.630Z,6.70
2018-03-21T14:54:23.819Z,6.60
2018-03-21T14:56:52.008Z,6.50
2018-03-21T14:59:26.811Z,6.20
2018-03-21T15:01:54.861Z,6.20
2018-03-21T15:04:24.099Z,6.20
2018-03-21T15:06:51.407Z,6.60
2018-03-21T15:09:24.616Z,6.60
2018-03-21T15:11:55.934Z,6.30
2018-03-21T15:14:26.508Z,6.30
2018-03-21T15:16:53.111Z,6.20
2018-03-21T15:19:22.888Z,6.40
2018-03-21T15:21:51.260Z,6.50
2018-03-21T15:24:17.879Z,6.50
2018-03-21T15:26:44.371Z,6.40
2018-03-21T15:29:15.079Z,6.40
2018-03-21T15:31:43.615Z,6.40
2018-03-21T15:34:13.934Z,6.30
2018-03-21T15:36:41.440Z,6.30
2018-03-21T15:39:15.096Z,6.30
2018-03-21T15:41:46.400Z,6.10
2018-03-21T15:44:21.731Z,6.00
2018-03-21T15:46:53.299Z,6.20
2018-03-21T15:49:23.760Z,6.10
2018-03-21T15:51:51.035Z,6.00
2018-03-21T15:54:28.210Z,6.10
2018-03-21T15:57:01.878Z,6.30
2018-03-21T15:59:36.352Z,6.30
2018-03-21T16:02:08.868Z,6.20
2018-03-21T16:04:40.632Z,6.30
2018-03-21T16:07:07.947Z,6.40
2018-03-21T16:09:53.759Z,6.30
2018-03-21T16:12:29.135Z,6.20
2018-03-21T16:14:56.502Z,6.10
2018-03-21T16:17:23.763Z,6.10
2018-03-21T16:20:01.009Z,6.10
2018-03-21T16:22:32.905Z,6.20
2018-03-21T16:25:05.441Z,6.20
2018-03-21T16:27:37.797Z,6.20
2018-03-21T16:30:07.327Z,6.20
2018-03-21T16:32:34.104Z,6.20
2018-03-21T16:35:01.576Z,5.90
2018-03-21T16:37:57.865Z,5.80
2018-03-21T16:40:24.439Z,5.80
2018-03-21T16:42:52.015Z,5.70
2018-03-21T16:45:24.167Z,5.70
2018-03-21T16:47:53.909Z,5.60
2018-03-21T16:50:22.952Z,5.50
2018-03-21T16:52:51.467Z,5.50
2018-03-21T16:55:19.687Z,5.50
2018-03-21T16:57:59.055Z,5.50
2018-03-21T17:00:26.412Z,5.40
2018-03-21T17:02:53.748Z,5.40
2018-03-21T17:05:22.439Z,5.20
2018-03-21T17:07:51.872Z,5.10
2018-03-21T17:10:28.646Z,5.00
2018-03-21T17:13:01.932Z,5.00
2018-03-21T17:15:47.690Z,4.90
2018-03-21T17:18:18.200Z,4.90
2018-03-21T17:20:53.068Z,4.60
2018-03-21T17:23:22.049Z,4.60
2018-03-21T17:25:55.333Z,4.30
2018-03-21T17:28:31.478Z,4.30
2018-03-21T17:30:58.830Z,4.20
2018-03-21T17:33:51.221Z,4.00
2018-03-21T17:36:40.825Z,3.50
2018-03-21T17:39:14.603Z,3.50
2018-03-21T17:41:59.011Z,3.50
2018-03-21T17:44:27.366Z,3.50
2018-03-21T17:46:56.542Z,3.10
2018-03-21T17:49:23.212Z,3.10
2018-03-21T17:51:51.564Z,3.10
2018-03-21T17:54:24.011Z,3.00
2018-03-21T17:56:54.307Z,2.90
2018-03-21T17:59:22.514Z,2.70
2018-03-21T18:01:51.759Z,2.50
2018-03-21T18:04:21.076Z,2.50
2018-03-21T18:06:50.908Z,2.40
2018-03-21T18:09:18.028Z,2.40
2018-03-21T18:11:44.968Z,2.40
2018-03-21T18:14:13.532Z,2.20
2018-03-21T18:16:45.922Z,2.00
2018-03-21T18:19:16.523Z,2.00
2018-03-21T18:21:45.307Z,1.80
2018-03-21T18:24:15.707Z,1.80
2018-03-21T18:26:44.997Z,1.60
2018-03-21T18:29:15.664Z,1.60
2018-03-21T18:31:46.588Z,1.50
2018-03-21T18:34:15.935Z,1.20
2018-03-21T18:36:43.287Z,1.20
2018-03-21T18:39:13.479Z,1.10
2018-03-21T18:41:40.623Z,1.30
2018-03-21T18:44:07.932Z,1.20
2018-03-21T18:46:35.004Z,1.00
2018-03-21T18:49:09.152Z,0.50
2018-03-21T18:51:37.625Z,0.50
2018-03-21T18:54:07.520Z,0.30
2018-03-21T18:56:39.882Z,0.20
2018-03-21T18:59:12.332Z,0.20
2018-03-21T19:01:43.592Z,0.40
2018-03-21T19:04:14.320Z,0.70
2018-03-21T19:06:43.164Z,1.00
2018-03-21T19:09:10.543Z,1.00
2018-03-21T19:11:40.599Z,0.90
2018-03-21T19:14:22.442Z,0.80
2018-03-21T19:16:55.529Z,0.60
2018-03-21T19:19:22.617Z,0.50
2018-03-21T19:21:54.299Z,0.20
2018-03-21T19:24:41.197Z,-0.20
2018-03-21T19:27:23.928Z,-0.20
2018-03-21T19:29:57.392Z,-0.50
2018-03-21T19:32:24.707Z,-0.50
2018-03-21T19:34:52.671Z,-0.60
2018-03-21T19:37:25.145Z,-0.60
2018-03-21T19:39:52.617Z,-0.40
2018-03-21T19:42:22.801Z,-0.10
2018-03-21T19:44:53.283Z,0.20
2018-03-21T19:47:22.389Z,0.40
2018-03-21T19:49:52.947Z,0.30
2018-03-21T19:52:24.061Z,0.30
2018-03-21T19:54:53.064Z,0.20
2018-03-21T19:57:21.462Z,-0.10
2018-03-21T19:59:49.127Z,-0.60
2018-03-21T20:02:17.752Z,-0.60
2018-03-21T20:04:47.399Z,-0.40
2018-03-21T20:07:16.894Z,0.10
2018-03-21T20:09:43.932Z,0.10
2018-03-21T20:12:15.462Z,0.30
2018-03-21T20:14:43.862Z,0.20
2018-03-21T20:17:25.471Z,0.20
2018-03-21T20:19:54.749Z,0.00
2018-03-21T20:22:34.134Z,0.00
2018-03-21T20:25:01.484Z,-0.30
2018-03-21T20:27:28.946Z,-0.60
2018-03-21T20:29:57.169Z,-0.80
2018-03-21T20:32:46.086Z,-0.70
2018-03-21T20:35:16.398Z,-0.60
2018-03-21T20:37:49.627Z,-0.60
2018-03-21T20:40:18.254Z,-0.70
2018-03-21T20:42:46.422Z,-0.70
2018-03-21T20:45:14.618Z,-0.80
2018-03-21T20:48:01.079Z,-0.80
2018-03-21T20:50:30.248Z,-1.00
2018-03-21T20:52:57.545Z,-1.00
2018-03-21T20:55:46.564Z,-1.00
2018-03-21T20:58:17.785Z,-0.80
2018-03-21T21:00:45.453Z,-0.80
2018-03-21T21:03:12.803Z,-0.60
2018-03-21T21:05:43.164Z,-0.60
2018-03-21T21:08:15.820Z,-0.60
2018-03-21T21:10:43.476Z,-0.70
2018-03-21T21:13:25.309Z,-0.90
2018-03-21T21:15:57.847Z,-0.90
2018-03-21T21:18:37.668Z,-1.00
2018-03-21T21:21:12.359Z,-1.20
2018-03-21T21:23:39.719Z,-1.40
2018-03-21T21:26:07.555Z,-1.60
2018-03-21T21:28:34.884Z,-1.70
2018-03-21T21:31:03.426Z,-1.70
2018-03-21T21:33:30.744Z,-1.90
2018-03-21T21:35:59.869Z,-1.90
2018-03-21T21:38:27.576Z,-1.60
2018-03-21T21:40:54.823Z,-1.50
2018-03-21T21:43:24.291Z,-1.50
2018-03-21T21:45:54.054Z,-1.50
2018-03-21T21:48:28.056Z,-1.60
2018-03-21T21:50:55.436Z,-1.60
2018-03-21T21:53:27.902Z,-1.60
2018-03-21T21:56:00.500Z,-1.60
2018-03-21T21:58:46.752Z,-1.80
2018-03-21T22:01:21.517Z,-2.00
2018-03-21T22:03:53.720Z,-2.10
2018-03-21T22:06:21.380Z,-2.10
2018-03-21T22:08:50.057Z,-2.20
2018-03-21T22:11:16.746Z,-2.10
2018-03-21T22:13:49.823Z,-2.30
2018-03-21T22:16:22.227Z,-2.30
2018-03-21T22:18:50.223Z,-2.00
2018-03-21T22:21:31.087Z,-1.90
2018-03-21T22:24:01.238Z,-1.80
2018-03-21T22:26:27.878Z,-1.80
2018-03-21T22:28:57.223Z,-1.80
2018-03-21T22:31:28.747Z,-2.00
2018-03-21T22:33:58.325Z,-2.20
2018-03-21T22:36:25.735Z,-2.20
2018-03-21T22:38:53.106Z,-1.90
2018-03-21T22:41:25.854Z,-1.90
2018-03-21T22:43:56.746Z,-1.50
2018-03-21T22:46:27.123Z,-1.50
2018-03-21T22:48:54.439Z,-1.40
2018-03-21T22:51:21.808Z,-1.50
2018-03-21T22:53:49.218Z,-1.60
2018-03-21T22:56:17.099Z,-1.70
2018-03-21T22:58:57.606Z,-1.70
2018-03-21T23:01:24.906Z,-1.90
2018-03-21T23:04:11.528Z,-1.80
2018-03-21T23:06:53.231Z,-1.80
2018-03-21T23:09:29.092Z,-1.60
2018-03-21T23:11:56.463Z,-1.60
2018-03-21T23:14:27.943Z,-1.70
2018-03-21T23:16:56.454Z,-1.70
2018-03-21T23:19:23.728Z,-1.90
2018-03-21T23:21:59.287Z,-2.10
2018-03-21T23:24:28.695Z,-2.10
2018-03-21T23:26:55.953Z,-2.10
2018-03-21T23:29:23.326Z,-2.00
2018-03-21T23:32:01.415Z,-2.00
2018-03-21T23:34:33.831Z,-1.80
2018-03-21T23:37:01.131Z,-1.90
2018-03-21T23:39:46.811Z,-1.80
2018-03-21T23:42:19.207Z,-1.80
2018-03-21T23:44:57.927Z,-1.70
2018-03-21T23:47:29.253Z,-1.70
2018-03-21T23:49:58.618Z,-1.70
2018-03-21T23:52:26.019Z,-1.80
2018-03-21T23:54:54.138Z,-1.80
2018-03-21T23:57:26.819Z,-1.80
